Check out our new PWSWeather beta!
PWSweather.com
Personal Weather Stations
Station Observations
ROSEGARDEN
Rose Garden, Brentwood, CA 94513

Rose GardenBrentwood, CA 94513

Lat: 37.967503, Lon: -121.721004

Elevation: 89

Station Type: Davis Vantage Vue

High Low Average
Temperature 74.5°F23.6°C 47.3°F8.5°C 59.3°F15.2°C
Dew Point 47.0°F8.3°C -1.0°F-18.3°C 42.6°F5.9°C
Winds 5.3 mph 8.5 kmh Calm Calm 2.0 mph W3.2 kmh W
Wind Gusts 17.0 mph27.4 kmh -- 6.0 mph9.7 kmh
Humidity 87% 24% 59%
Pressure 30.36 in1028.1 mb 30.20 in1022.7 mb -
Precipitation 0.00 in0.0 mm - -
Hour Temp Dew Point Humidity Winds Wind Gusts Pressure Precip Precip Rate Daily Precip Total
12:00 AM 49.1°F9.5°C 43.0°F6.1°C 78% Calm Calm -- 30.31 in1026.4 mb 0.00 in0.0 mm 0.00 in0.0 mm 0.00 in0.0 mm
12:10 AM 49.0°F9.4°C 43.0°F6.1°C 79% Calm Calm -- 30.32 in1026.8 mb 0.00 in0.0 mm 0.00 in0.0 mm 0.00 in0.0 mm
12:20 AM 49.0°F9.4°C 43.0°F6.1°C 80% Calm Calm -- 30.32 in1026.8 mb 0.00 in0.0 mm 0.00 in0.0 mm 0.00 in0.0 mm
12:30 AM 49.1°F9.5°C 43.0°F6.1°C 80% 1.2 mph NE1.9 kmh NE 3.0 mph4.8 kmh 30.32 in1026.8 mb 0.00 in0.0 mm 0.00 in0.0 mm 0.00 in0.0 mm
12:40 AM 48.8°F9.3°C 43.0°F6.1°C 81% 1.3 mph ENE2.1 kmh ENE 3.0 mph4.8 kmh 30.32 in1026.8 mb 0.00 in0.0 mm 0.00 in0.0 mm 0.00 in0.0 mm
12:50 AM 48.7°F9.3°C 44.0°F6.7°C 83% 0.8 mph E1.3 kmh E 2.0 mph3.2 kmh 30.32 in1026.8 mb 0.00 in0.0 mm 0.00 in0.0 mm 0.00 in0.0 mm
01:00 AM 48.8°F9.3°C 44.0°F6.7°C 83% 0.1 mph E0.2 kmh E 1.0 mph1.6 kmh 30.32 in1026.8 mb 0.00 in0.0 mm 0.00 in0.0 mm 0.00 in0.0 mm
01:10 AM 48.6°F9.2°C 44.0°F6.7°C 84% Calm Calm 1.0 mph1.6 kmh 30.32 in1026.8 mb 0.00 in0.0 mm 0.00 in0.0 mm 0.00 in0.0 mm
01:20 AM 48.1°F8.9°C 44.0°F6.7°C 84% 0.1 mph WNW0.2 kmh WNW 1.0 mph1.6 kmh 30.32 in1026.8 mb 0.00 in0.0 mm 0.00 in0.0 mm 0.00 in0.0 mm
01:30 AM 47.9°F8.8°C 43.0°F6.1°C 84% 0.2 mph W0.3 kmh W 1.0 mph1.6 kmh 30.32 in1026.8 mb 0.00 in0.0 mm 0.00 in0.0 mm 0.00 in0.0 mm
01:40 AM 47.7°F8.7°C 43.0°F6.1°C 83% 1.2 mph W1.9 kmh W 2.0 mph3.2 kmh 30.32 in1026.8 mb 0.00 in0.0 mm 0.00 in0.0 mm 0.00 in0.0 mm
01:50 AM 47.9°F8.8°C 43.0°F6.1°C 83% 1.5 mph W2.4 kmh W 2.0 mph3.2 kmh 30.32 in1026.8 mb 0.00 in0.0 mm 0.00 in0.0 mm 0.00 in0.0 mm
02:00 AM 47.9°F8.8°C 43.0°F6.1°C 82% 1.2 mph W1.9 kmh W 2.0 mph3.2 kmh 30.32 in1026.8 mb 0.00 in0.0 mm 0.00 in0.0 mm 0.00 in0.0 mm
02:10 AM 48.5°F9.2°C 43.0°F6.1°C 82% 1.7 mph WNW2.7 kmh WNW 3.0 mph4.8 kmh 30.32 in1026.8 mb 0.00 in0.0 mm 0.00 in0.0 mm 0.00 in0.0 mm
02:20 AM 49.0°F9.4°C 44.0°F6.7°C 82% 2.2 mph NW3.5 kmh NW 4.0 mph6.4 kmh 30.32 in1026.8 mb 0.00 in0.0 mm 0.00 in0.0 mm 0.00 in0.0 mm
02:30 AM 48.9°F9.4°C 44.0°F6.7°C 82% 0.1 mph NW0.2 kmh NW 2.0 mph3.2 kmh 30.32 in1026.8 mb 0.00 in0.0 mm 0.00 in0.0 mm 0.00 in0.0 mm
02:40 AM 49.0°F9.4°C 44.0°F6.7°C 82% 0.1 mph NNW0.2 kmh NNW 2.0 mph3.2 kmh 30.32 in1026.8 mb 0.00 in0.0 mm 0.00 in0.0 mm 0.00 in0.0 mm
02:50 AM 49.3°F9.6°C 44.0°F6.7°C 83% 0.5 mph NW0.8 kmh NW 3.0 mph4.8 kmh 30.32 in1026.8 mb 0.00 in0.0 mm 0.00 in0.0 mm 0.00 in0.0 mm
03:00 AM 49.3°F9.6°C 45.0°F7.2°C 84% 0.8 mph NNE1.3 kmh NNE 3.0 mph4.8 kmh 30.32 in1026.8 mb 0.00 in0.0 mm 0.00 in0.0 mm 0.00 in0.0 mm
03:10 AM 49.1°F9.5°C 45.0°F7.2°C 84% 0.8 mph NW1.3 kmh NW 3.0 mph4.8 kmh 30.32 in1026.8 mb 0.00 in0.0 mm 0.00 in0.0 mm 0.00 in0.0 mm
03:20 AM 48.9°F9.4°C 45.0°F7.2°C 85% 0.2 mph NW0.3 kmh NW 2.0 mph3.2 kmh 30.32 in1026.8 mb 0.00 in0.0 mm 0.00 in0.0 mm 0.00 in0.0 mm
03:30 AM 48.9°F9.4°C 45.0°F7.2°C 85% 0.8 mph WNW1.3 kmh WNW 3.0 mph4.8 kmh 30.31 in1026.4 mb 0.00 in0.0 mm 0.00 in0.0 mm 0.00 in0.0 mm
03:40 AM 48.7°F9.3°C 44.0°F6.7°C 85% 0.6 mph N1.0 kmh N 3.0 mph4.8 kmh 30.31 in1026.4 mb 0.00 in0.0 mm 0.00 in0.0 mm 0.00 in0.0 mm
03:50 AM 48.4°F9.1°C 44.0°F6.7°C 85% 0.2 mph W0.3 kmh W 3.0 mph4.8 kmh 30.31 in1026.4 mb 0.00 in0.0 mm 0.00 in0.0 mm 0.00 in0.0 mm
04:00 AM 48.7°F9.3°C 44.0°F6.7°C 85% 1.3 mph NW2.1 kmh NW 3.0 mph4.8 kmh 30.32 in1026.8 mb 0.00 in0.0 mm 0.00 in0.0 mm 0.00 in0.0 mm
04:10 AM 48.9°F9.4°C 44.0°F6.7°C 84% 1.3 mph NW2.1 kmh NW 3.0 mph4.8 kmh 30.31 in1026.4 mb 0.00 in0.0 mm 0.00 in0.0 mm 0.00 in0.0 mm
04:20 AM 48.7°F9.3°C 44.0°F6.7°C 85% 0.9 mph WNW1.4 kmh WNW 3.0 mph4.8 kmh 30.32 in1026.8 mb 0.00 in0.0 mm 0.00 in0.0 mm 0.00 in0.0 mm
04:30 AM 49.0°F9.4°C 45.0°F7.2°C 85% 0.7 mph NW1.1 kmh NW 4.0 mph6.4 kmh 30.32 in1026.8 mb 0.00 in0.0 mm 0.00 in0.0 mm 0.00 in0.0 mm
04:40 AM 49.0°F9.4°C 45.0°F7.2°C 85% 0.3 mph NW0.5 kmh NW 2.0 mph3.2 kmh 30.32 in1026.8 mb 0.00 in0.0 mm 0.00 in0.0 mm 0.00 in0.0 mm
04:50 AM 49.0°F9.4°C 45.0°F7.2°C 85% 1.0 mph NW1.6 kmh NW 3.0 mph4.8 kmh 30.32 in1026.8 mb 0.00 in0.0 mm 0.00 in0.0 mm 0.00 in0.0 mm
05:00 AM 48.6°F9.2°C 44.0°F6.7°C 85% 0.2 mph WNW0.3 kmh WNW 1.0 mph1.6 kmh 30.32 in1026.8 mb 0.00 in0.0 mm 0.00 in0.0 mm 0.00 in0.0 mm
05:10 AM 48.4°F9.1°C 44.0°F6.7°C 86% 0.3 mph W0.5 kmh W 1.0 mph1.6 kmh 30.33 in1027.1 mb 0.00 in0.0 mm 0.00 in0.0 mm 0.00 in0.0 mm
05:20 AM 48.3°F9.1°C 44.0°F6.7°C 86% 0.5 mph WNW0.8 kmh WNW 2.0 mph3.2 kmh 30.33 in1027.1 mb 0.00 in0.0 mm 0.00 in0.0 mm 0.00 in0.0 mm
05:30 AM 47.7°F8.7°C 44.0°F6.7°C 86% Calm Calm -- 30.33 in1027.1 mb 0.00 in0.0 mm 0.00 in0.0 mm 0.00 in0.0 mm
05:40 AM 47.8°F8.8°C 44.0°F6.7°C 87% 0.8 mph WNW1.3 kmh WNW 3.0 mph4.8 kmh 30.33 in1027.1 mb 0.00 in0.0 mm 0.00 in0.0 mm 0.00 in0.0 mm
05:50 AM 47.7°F8.7°C 44.0°F6.7°C 87% 0.5 mph NW0.8 kmh NW 2.0 mph3.2 kmh 30.34 in1027.4 mb 0.00 in0.0 mm 0.00 in0.0 mm 0.00 in0.0 mm
06:00 AM 47.3°F8.5°C 44.0°F6.7°C 87% Calm Calm 1.0 mph1.6 kmh 30.34 in1027.4 mb 0.00 in0.0 mm 0.00 in0.0 mm 0.00 in0.0 mm
06:10 AM 47.8°F8.8°C 44.0°F6.7°C 87% 0.8 mph W1.3 kmh W 3.0 mph4.8 kmh 30.34 in1027.4 mb 0.00 in0.0 mm 0.00 in0.0 mm 0.00 in0.0 mm
06:20 AM 48.5°F9.2°C 45.0°F7.2°C 86% 2.1 mph WNW3.4 kmh WNW 5.0 mph8.0 kmh 30.34 in1027.4 mb 0.00 in0.0 mm 0.00 in0.0 mm 0.00 in0.0 mm
06:30 AM 48.9°F9.4°C 45.0°F7.2°C 85% 2.1 mph WNW3.4 kmh WNW 4.0 mph6.4 kmh 30.34 in1027.4 mb 0.00 in0.0 mm 0.00 in0.0 mm 0.00 in0.0 mm
06:40 AM 49.4°F9.7°C 45.0°F7.2°C 84% 2.5 mph NW4.0 kmh NW 5.0 mph8.0 kmh 30.34 in1027.4 mb 0.00 in0.0 mm 0.00 in0.0 mm 0.00 in0.0 mm
06:50 AM 49.6°F9.8°C 45.0°F7.2°C 84% 1.7 mph WSW2.7 kmh WSW 3.0 mph4.8 kmh 30.34 in1027.4 mb 0.00 in0.0 mm 0.00 in0.0 mm 0.00 in0.0 mm
07:00 AM 49.7°F9.8°C 45.0°F7.2°C 83% 2.1 mph W3.4 kmh W 4.0 mph6.4 kmh 30.34 in1027.4 mb 0.00 in0.0 mm 0.00 in0.0 mm 0.00 in0.0 mm
07:10 AM 49.9°F9.9°C 45.0°F7.2°C 83% 2.6 mph W4.2 kmh W 5.0 mph8.0 kmh 30.34 in1027.4 mb 0.00 in0.0 mm 0.00 in0.0 mm 0.00 in0.0 mm
07:20 AM 50.5°F10.3°C 46.0°F7.8°C 83% 1.8 mph NW2.9 kmh NW 3.0 mph4.8 kmh 30.34 in1027.4 mb 0.00 in0.0 mm 0.00 in0.0 mm 0.00 in0.0 mm
07:30 AM 51.0°F10.6°C 46.0°F7.8°C 82% 2.2 mph W3.5 kmh W 4.0 mph6.4 kmh 30.35 in1027.8 mb 0.00 in0.0 mm 0.00 in0.0 mm 0.00 in0.0 mm
07:40 AM 51.2°F10.7°C 46.0°F7.8°C 81% 2.0 mph W3.2 kmh W 3.0 mph4.8 kmh 30.35 in1027.8 mb 0.00 in0.0 mm 0.00 in0.0 mm 0.00 in0.0 mm
07:50 AM 51.6°F10.9°C 46.0°F7.8°C 81% 1.4 mph WSW2.3 kmh WSW 4.0 mph6.4 kmh 30.35 in1027.8 mb 0.00 in0.0 mm 0.00 in0.0 mm 0.00 in0.0 mm
08:00 AM 52.4°F11.3°C 46.0°F7.8°C 80% 1.4 mph W2.3 kmh W 3.0 mph4.8 kmh 30.35 in1027.8 mb 0.00 in0.0 mm 0.00 in0.0 mm 0.00 in0.0 mm
08:10 AM 53.4°F11.9°C 47.0°F8.3°C 79% 0.9 mph NW1.4 kmh NW 3.0 mph4.8 kmh 30.36 in1028.1 mb 0.00 in0.0 mm 0.00 in0.0 mm 0.00 in0.0 mm
08:20 AM 54.5°F12.5°C 47.0°F8.3°C 76% 1.1 mph W1.8 kmh W 3.0 mph4.8 kmh 30.36 in1028.1 mb 0.00 in0.0 mm 0.00 in0.0 mm 0.00 in0.0 mm
08:30 AM 55.1°F12.8°C 47.0°F8.3°C 75% 1.7 mph NNW2.7 kmh NNW 5.0 mph8.0 kmh 30.36 in1028.1 mb 0.00 in0.0 mm 0.00 in0.0 mm 0.00 in0.0 mm
08:40 AM 55.8°F13.2°C 47.0°F8.3°C 73% 1.7 mph NW2.7 kmh NW 6.0 mph9.7 kmh 30.36 in1028.1 mb 0.00 in0.0 mm 0.00 in0.0 mm 0.00 in0.0 mm
08:50 AM 56.3°F13.5°C 47.0°F8.3°C 72% 2.2 mph WNW3.5 kmh WNW 7.0 mph11.3 kmh 30.36 in1028.1 mb 0.00 in0.0 mm 0.00 in0.0 mm 0.00 in0.0 mm
09:00 AM 56.6°F13.7°C 47.0°F8.3°C 71% 2.6 mph NW4.2 kmh NW 5.0 mph8.0 kmh 30.36 in1028.1 mb 0.00 in0.0 mm 0.00 in0.0 mm 0.00 in0.0 mm
09:10 AM 57.1°F13.9°C 47.0°F8.3°C 70% 2.8 mph NE4.5 kmh NE 7.0 mph11.3 kmh 30.36 in1028.1 mb 0.00 in0.0 mm 0.00 in0.0 mm 0.00 in0.0 mm
09:20 AM 57.5°F14.2°C 47.0°F8.3°C 67% 3.3 mph NNE5.3 kmh NNE 7.0 mph11.3 kmh 30.36 in1028.1 mb 0.00 in0.0 mm 0.00 in0.0 mm 0.00 in0.0 mm
09:30 AM 58.0°F14.4°C 47.0°F8.3°C 66% 3.7 mph N6.0 kmh N 9.0 mph14.5 kmh 30.36 in1028.1 mb 0.00 in0.0 mm 0.00 in0.0 mm 0.00 in0.0 mm
09:40 AM 58.3°F14.6°C 46.0°F7.8°C 63% 3.9 mph N6.3 kmh N 10.0 mph16.1 kmh 30.36 in1028.1 mb 0.00 in0.0 mm 0.00 in0.0 mm 0.00 in0.0 mm
09:50 AM 58.5°F14.7°C 46.0°F7.8°C 63% 3.7 mph WNW6.0 kmh WNW 9.0 mph14.5 kmh 30.35 in1027.8 mb 0.00 in0.0 mm 0.00 in0.0 mm 0.00 in0.0 mm
10:00 AM 59.0°F15.0°C 46.0°F7.8°C 63% 4.3 mph NW6.9 kmh NW 8.0 mph12.9 kmh 30.35 in1027.8 mb 0.00 in0.0 mm 0.00 in0.0 mm 0.00 in0.0 mm
10:10 AM 59.7°F15.4°C 46.0°F7.8°C 61% 3.5 mph NW5.6 kmh NW 9.0 mph14.5 kmh 30.35 in1027.8 mb 0.00 in0.0 mm 0.00 in0.0 mm 0.00 in0.0 mm
10:20 AM 59.7°F15.4°C 46.0°F7.8°C 60% 4.1 mph N6.6 kmh N 9.0 mph14.5 kmh 30.34 in1027.4 mb 0.00 in0.0 mm 0.00 in0.0 mm 0.00 in0.0 mm
10:30 AM 60.6°F15.9°C 46.0°F7.8°C 59% 3.1 mph NNE5.0 kmh NNE 11.0 mph17.7 kmh 30.34 in1027.4 mb 0.00 in0.0 mm 0.00 in0.0 mm 0.00 in0.0 mm
10:40 AM 61.2°F16.2°C 46.0°F7.8°C 58% 3.8 mph WNW6.1 kmh WNW 8.0 mph12.9 kmh 30.34 in1027.4 mb 0.00 in0.0 mm 0.00 in0.0 mm 0.00 in0.0 mm
10:50 AM 62.2°F16.8°C 47.0°F8.3°C 58% 2.8 mph NW4.5 kmh NW 7.0 mph11.3 kmh 30.33 in1027.1 mb 0.00 in0.0 mm 0.00 in0.0 mm 0.00 in0.0 mm
11:00 AM 62.9°F17.2°C 47.0°F8.3°C 56% 2.8 mph NNW4.5 kmh NNW 8.0 mph12.9 kmh 30.33 in1027.1 mb 0.00 in0.0 mm 0.00 in0.0 mm 0.00 in0.0 mm
11:10 AM 63.6°F17.6°C 45.0°F7.2°C 52% 3.2 mph SW5.1 kmh SW 8.0 mph12.9 kmh 30.32 in1026.8 mb 0.00 in0.0 mm 0.00 in0.0 mm 0.00 in0.0 mm
11:20 AM 64.7°F18.2°C 46.0°F7.8°C 51% 2.9 mph N4.7 kmh N 8.0 mph12.9 kmh 30.32 in1026.8 mb 0.00 in0.0 mm 0.00 in0.0 mm 0.00 in0.0 mm
11:30 AM 65.0°F18.3°C 44.0°F6.7°C 47% 4.6 mph NW7.4 kmh NW 12.0 mph19.3 kmh 30.31 in1026.4 mb 0.00 in0.0 mm 0.00 in0.0 mm 0.00 in0.0 mm
11:40 AM 65.4°F18.6°C 44.0°F6.7°C 47% 4.5 mph NNW7.2 kmh NNW 12.0 mph19.3 kmh 30.31 in1026.4 mb 0.00 in0.0 mm 0.00 in0.0 mm 0.00 in0.0 mm
11:50 AM 65.5°F18.6°C 44.0°F6.7°C 46% 3.6 mph N5.8 kmh N 11.0 mph17.7 kmh 30.31 in1026.4 mb 0.00 in0.0 mm 0.00 in0.0 mm 0.00 in0.0 mm
12:00 PM 65.9°F18.8°C 44.0°F6.7°C 46% 4.8 mph NW7.7 kmh NW 11.0 mph17.7 kmh 30.31 in1026.4 mb 0.00 in0.0 mm 0.00 in0.0 mm 0.00 in0.0 mm
12:10 PM 66.3°F19.1°C 44.0°F6.7°C 44% 5.1 mph WNW8.2 kmh WNW 11.0 mph17.7 kmh 30.30 in1026.1 mb 0.00 in0.0 mm 0.00 in0.0 mm 0.00 in0.0 mm
12:20 PM 66.7°F19.3°C 43.0°F6.1°C 42% 5.3 mph NW8.5 kmh NW 17.0 mph27.4 kmh 30.30 in1026.1 mb 0.00 in0.0 mm 0.00 in0.0 mm 0.00 in0.0 mm
12:30 PM 67.2°F19.6°C 44.0°F6.7°C 43% 4.6 mph NW7.4 kmh NW 10.0 mph16.1 kmh 30.29 in1025.7 mb 0.00 in0.0 mm 0.00 in0.0 mm 0.00 in0.0 mm
12:40 PM 67.7°F19.8°C 44.0°F6.7°C 42% 4.0 mph WSW6.4 kmh WSW 11.0 mph17.7 kmh 30.29 in1025.7 mb 0.00 in0.0 mm 0.00 in0.0 mm 0.00 in0.0 mm
12:50 PM 67.7°F19.8°C 44.0°F6.7°C 42% 4.4 mph NNW7.1 kmh NNW 12.0 mph19.3 kmh 30.28 in1025.4 mb 0.00 in0.0 mm 0.00 in0.0 mm 0.00 in0.0 mm
01:00 PM 68.3°F20.2°C 43.0°F6.1°C 40% 4.2 mph WNW6.8 kmh WNW 10.0 mph16.1 kmh 30.28 in1025.4 mb 0.00 in0.0 mm 0.00 in0.0 mm 0.00 in0.0 mm
01:10 PM 68.7°F20.4°C 43.0°F6.1°C 40% 4.3 mph N6.9 kmh N 10.0 mph16.1 kmh 30.27 in1025.1 mb 0.00 in0.0 mm 0.00 in0.0 mm 0.00 in0.0 mm
01:20 PM 68.9°F20.5°C 43.0°F6.1°C 40% 4.0 mph NW6.4 kmh NW 12.0 mph19.3 kmh 30.27 in1025.1 mb 0.00 in0.0 mm 0.00 in0.0 mm 0.00 in0.0 mm
01:30 PM 69.5°F20.8°C 43.0°F6.1°C 38% 4.2 mph W6.8 kmh W 10.0 mph16.1 kmh 30.26 in1024.7 mb 0.00 in0.0 mm 0.00 in0.0 mm 0.00 in0.0 mm
01:40 PM 69.6°F20.9°C 43.0°F6.1°C 39% 3.9 mph N6.3 kmh N 12.0 mph19.3 kmh 30.26 in1024.7 mb 0.00 in0.0 mm 0.00 in0.0 mm 0.00 in0.0 mm
01:50 PM 70.4°F21.3°C 42.0°F5.6°C 36% 3.7 mph NW6.0 kmh NW 9.0 mph14.5 kmh 30.25 in1024.4 mb 0.00 in0.0 mm 0.00 in0.0 mm 0.00 in0.0 mm
02:00 PM 71.0°F21.7°C 43.0°F6.1°C 37% 3.7 mph W6.0 kmh W 12.0 mph19.3 kmh 30.25 in1024.4 mb 0.00 in0.0 mm 0.00 in0.0 mm 0.00 in0.0 mm
02:10 PM 70.7°F21.5°C 44.0°F6.7°C 38% 4.3 mph W6.9 kmh W 10.0 mph16.1 kmh 30.25 in1024.4 mb 0.00 in0.0 mm 0.00 in0.0 mm 0.00 in0.0 mm
02:20 PM 71.0°F21.7°C 42.0°F5.6°C 35% 4.9 mph W7.9 kmh W 11.0 mph17.7 kmh 30.25 in1024.4 mb 0.00 in0.0 mm 0.00 in0.0 mm 0.00 in0.0 mm
02:30 PM 71.9°F22.2°C 43.0°F6.1°C 35% 3.9 mph WNW6.3 kmh WNW 9.0 mph14.5 kmh 30.24 in1024.0 mb 0.00 in0.0 mm 0.00 in0.0 mm 0.00 in0.0 mm
02:40 PM 72.0°F22.2°C 40.0°F4.4°C 31% 4.2 mph NNW6.8 kmh NNW 12.0 mph19.3 kmh 30.24 in1024.0 mb 0.00 in0.0 mm 0.00 in0.0 mm 0.00 in0.0 mm
02:50 PM 72.8°F22.7°C 40.0°F4.4°C 30% 3.9 mph W6.3 kmh W 11.0 mph17.7 kmh 30.23 in1023.7 mb 0.00 in0.0 mm 0.00 in0.0 mm 0.00 in0.0 mm
03:00 PM 73.1°F22.8°C 40.0°F4.4°C 30% 3.2 mph NNW5.1 kmh NNW 9.0 mph14.5 kmh 30.23 in1023.7 mb 0.00 in0.0 mm 0.00 in0.0 mm 0.00 in0.0 mm
03:10 PM 73.1°F22.8°C 40.0°F4.4°C 30% 3.8 mph NW6.1 kmh NW 9.0 mph14.5 kmh 30.22 in1023.4 mb 0.00 in0.0 mm 0.00 in0.0 mm 0.00 in0.0 mm
03:20 PM 73.3°F22.9°C 38.0°F3.3°C 28% 4.1 mph NW6.6 kmh NW 12.0 mph19.3 kmh 30.22 in1023.4 mb 0.00 in0.0 mm 0.00 in0.0 mm 0.00 in0.0 mm
03:30 PM 73.7°F23.2°C 38.0°F3.3°C 27% 4.7 mph WNW7.6 kmh WNW 10.0 mph16.1 kmh 30.22 in1023.4 mb 0.00 in0.0 mm 0.00 in0.0 mm 0.00 in0.0 mm
03:40 PM 73.9°F23.3°C 38.0°F3.3°C 27% 4.1 mph NW6.6 kmh NW 10.0 mph16.1 kmh 30.21 in1023.0 mb 0.00 in0.0 mm 0.00 in0.0 mm 0.00 in0.0 mm
03:50 PM 74.4°F23.6°C 35.0°F1.7°C 24% 3.5 mph NNW5.6 kmh NNW 9.0 mph14.5 kmh 30.21 in1023.0 mb 0.00 in0.0 mm 0.00 in0.0 mm 0.00 in0.0 mm
04:00 PM 74.5°F23.6°C 36.0°F2.2°C 25% 3.9 mph W6.3 kmh W 12.0 mph19.3 kmh 30.21 in1023.0 mb 0.00 in0.0 mm 0.00 in0.0 mm 0.00 in0.0 mm
04:10 PM 74.4°F23.6°C 35.0°F1.7°C 24% 4.0 mph N6.4 kmh N 11.0 mph17.7 kmh 30.21 in1023.0 mb 0.00 in0.0 mm 0.00 in0.0 mm 0.00 in0.0 mm
04:20 PM 74.4°F23.6°C 36.0°F2.2°C 25% 3.8 mph NW6.1 kmh NW 9.0 mph14.5 kmh 30.20 in1022.7 mb 0.00 in0.0 mm 0.00 in0.0 mm 0.00 in0.0 mm
04:30 PM 74.3°F23.5°C 35.0°F1.7°C 24% 3.7 mph NNW6.0 kmh NNW 10.0 mph16.1 kmh 30.20 in1022.7 mb 0.00 in0.0 mm 0.00 in0.0 mm 0.00 in0.0 mm
04:40 PM 74.0°F23.3°C 36.0°F2.2°C 25% 3.7 mph W6.0 kmh W 10.0 mph16.1 kmh 30.20 in1022.7 mb 0.00 in0.0 mm 0.00 in0.0 mm 0.00 in0.0 mm
04:50 PM 73.9°F23.3°C 35.0°F1.7°C 24% 4.1 mph W6.6 kmh W 11.0 mph17.7 kmh 30.20 in1022.7 mb 0.00 in0.0 mm 0.00 in0.0 mm 0.00 in0.0 mm
05:00 PM 73.8°F23.2°C 36.0°F2.2°C 25% 3.9 mph NNW6.3 kmh NNW 10.0 mph16.1 kmh 30.20 in1022.7 mb 0.00 in0.0 mm 0.00 in0.0 mm 0.00 in0.0 mm
05:10 PM 73.3°F22.9°C 39.0°F3.9°C 29% 3.8 mph WNW6.1 kmh WNW 10.0 mph16.1 kmh 30.20 in1022.7 mb 0.00 in0.0 mm 0.00 in0.0 mm 0.00 in0.0 mm
05:20 PM 72.5°F22.5°C 39.0°F3.9°C 30% 5.0 mph NW8.0 kmh NW 11.0 mph17.7 kmh 30.20 in1022.7 mb 0.00 in0.0 mm 0.00 in0.0 mm 0.00 in0.0 mm
05:30 PM 72.1°F22.3°C 40.0°F4.4°C 31% 3.9 mph W6.3 kmh W 8.0 mph12.9 kmh 30.20 in1022.7 mb 0.00 in0.0 mm 0.00 in0.0 mm 0.00 in0.0 mm
05:40 PM 71.2°F21.8°C 40.0°F4.4°C 32% 4.9 mph NW7.9 kmh NW 9.0 mph14.5 kmh 30.20 in1022.7 mb 0.00 in0.0 mm 0.00 in0.0 mm 0.00 in0.0 mm
05:50 PM 70.2°F21.2°C 40.0°F4.4°C 34% 4.3 mph NW6.9 kmh NW 10.0 mph16.1 kmh 30.20 in1022.7 mb 0.00 in0.0 mm 0.00 in0.0 mm 0.00 in0.0 mm
06:00 PM 69.4°F20.8°C -1.0°F-18.3°C 36% - NW NW -- 30.20 in1022.7 mb 0.00 in0.0 mm 0.00 in0.0 mm 0.00 in0.0 mm
06:10 PM 68.5°F20.3°C 42.0°F5.6°C 38% 3.6 mph NW5.8 kmh NW 8.0 mph12.9 kmh 30.20 in1022.7 mb 0.00 in0.0 mm 0.00 in0.0 mm 0.00 in0.0 mm
06:20 PM 67.6°F19.8°C 42.0°F5.6°C 40% 2.8 mph W4.5 kmh W 6.0 mph9.7 kmh 30.21 in1023.0 mb 0.00 in0.0 mm 0.00 in0.0 mm 0.00 in0.0 mm
06:30 PM 66.8°F19.3°C 42.0°F5.6°C 41% 2.9 mph N4.7 kmh N 7.0 mph11.3 kmh 30.21 in1023.0 mb 0.00 in0.0 mm 0.00 in0.0 mm 0.00 in0.0 mm
06:40 PM 66.2°F19.0°C 42.0°F5.6°C 41% 2.4 mph NW3.9 kmh NW 5.0 mph8.0 kmh 30.21 in1023.0 mb 0.00 in0.0 mm 0.00 in0.0 mm 0.00 in0.0 mm
06:50 PM 65.6°F18.7°C 41.0°F5.0°C 40% 2.4 mph WNW3.9 kmh WNW 4.0 mph6.4 kmh 30.21 in1023.0 mb 0.00 in0.0 mm 0.00 in0.0 mm 0.00 in0.0 mm
07:00 PM 65.4°F18.6°C 41.0°F5.0°C 41% 1.9 mph W3.1 kmh W 3.0 mph4.8 kmh 30.22 in1023.4 mb 0.00 in0.0 mm 0.00 in0.0 mm 0.00 in0.0 mm
07:10 PM 65.0°F18.3°C 41.0°F5.0°C 41% 1.6 mph WNW2.6 kmh WNW 3.0 mph4.8 kmh 30.22 in1023.4 mb 0.00 in0.0 mm 0.00 in0.0 mm 0.00 in0.0 mm
07:20 PM 64.3°F17.9°C 41.0°F5.0°C 43% 0.9 mph WSW1.4 kmh WSW 2.0 mph3.2 kmh 30.21 in1023.0 mb 0.00 in0.0 mm 0.00 in0.0 mm 0.00 in0.0 mm
07:30 PM 63.2°F17.3°C 41.0°F5.0°C 44% 0.3 mph NW0.5 kmh NW 1.0 mph1.6 kmh 30.21 in1023.0 mb 0.00 in0.0 mm 0.00 in0.0 mm 0.00 in0.0 mm
07:40 PM 62.8°F17.1°C 40.0°F4.4°C 44% 0.3 mph WNW0.5 kmh WNW 2.0 mph3.2 kmh 30.22 in1023.4 mb 0.00 in0.0 mm 0.00 in0.0 mm 0.00 in0.0 mm
07:50 PM 62.8°F17.1°C 40.0°F4.4°C 44% 0.9 mph W1.4 kmh W 2.0 mph3.2 kmh 30.22 in1023.4 mb 0.00 in0.0 mm 0.00 in0.0 mm 0.00 in0.0 mm
08:00 PM 62.8°F17.1°C 40.0°F4.4°C 43% 1.3 mph NW2.1 kmh NW 4.0 mph6.4 kmh 30.22 in1023.4 mb 0.00 in0.0 mm 0.00 in0.0 mm 0.00 in0.0 mm
08:10 PM 62.3°F16.8°C 40.0°F4.4°C 44% 0.4 mph WNW0.6 kmh WNW 3.0 mph4.8 kmh 30.22 in1023.4 mb 0.00 in0.0 mm 0.00 in0.0 mm 0.00 in0.0 mm
08:20 PM 62.1°F16.7°C 40.0°F4.4°C 44% 0.8 mph WNW1.3 kmh WNW 2.0 mph3.2 kmh 30.22 in1023.4 mb 0.00 in0.0 mm 0.00 in0.0 mm 0.00 in0.0 mm
08:30 PM 61.9°F16.6°C 40.0°F4.4°C 44% 0.6 mph WSW1.0 kmh WSW 2.0 mph3.2 kmh 30.22 in1023.4 mb 0.00 in0.0 mm 0.00 in0.0 mm 0.00 in0.0 mm
08:40 PM 61.8°F16.6°C 39.0°F3.9°C 44% 0.8 mph WNW1.3 kmh WNW 1.0 mph1.6 kmh 30.22 in1023.4 mb 0.00 in0.0 mm 0.00 in0.0 mm 0.00 in0.0 mm
08:50 PM 60.7°F15.9°C 39.0°F3.9°C 45% 0.2 mph WNW0.3 kmh WNW 1.0 mph1.6 kmh 30.22 in1023.4 mb 0.00 in0.0 mm 0.00 in0.0 mm 0.00 in0.0 mm
09:00 PM 60.3°F15.7°C 39.0°F3.9°C 46% 0.7 mph NNE1.1 kmh NNE 2.0 mph3.2 kmh 30.23 in1023.7 mb 0.00 in0.0 mm 0.00 in0.0 mm 0.00 in0.0 mm
09:10 PM 59.2°F15.1°C 42.0°F5.6°C 53% 1.1 mph NNW1.8 kmh NNW 3.0 mph4.8 kmh 30.23 in1023.7 mb 0.00 in0.0 mm 0.00 in0.0 mm 0.00 in0.0 mm
09:20 PM 58.3°F14.6°C 42.0°F5.6°C 55% 0.1 mph NW0.2 kmh NW 1.0 mph1.6 kmh 30.23 in1023.7 mb 0.00 in0.0 mm 0.00 in0.0 mm 0.00 in0.0 mm
09:30 PM 58.3°F14.6°C 43.0°F6.1°C 57% 1.0 mph NW1.6 kmh NW 4.0 mph6.4 kmh 30.23 in1023.7 mb 0.00 in0.0 mm 0.00 in0.0 mm 0.00 in0.0 mm
09:40 PM 58.8°F14.9°C 42.0°F5.6°C 55% 1.0 mph W1.6 kmh W 4.0 mph6.4 kmh 30.23 in1023.7 mb 0.00 in0.0 mm 0.00 in0.0 mm 0.00 in0.0 mm
09:50 PM 58.6°F14.8°C 43.0°F6.1°C 56% 0.7 mph NW1.1 kmh NW 3.0 mph4.8 kmh 30.23 in1023.7 mb 0.00 in0.0 mm 0.00 in0.0 mm 0.00 in0.0 mm
10:00 PM 57.9°F14.4°C 43.0°F6.1°C 57% 0.3 mph NW0.5 kmh NW 2.0 mph3.2 kmh 30.23 in1023.7 mb 0.00 in0.0 mm 0.00 in0.0 mm 0.00 in0.0 mm
10:10 PM 58.2°F14.6°C 42.0°F5.6°C 56% 0.3 mph WNW0.5 kmh WNW 3.0 mph4.8 kmh 30.23 in1023.7 mb 0.00 in0.0 mm 0.00 in0.0 mm 0.00 in0.0 mm
10:20 PM 58.3°F14.6°C 43.0°F6.1°C 57% 1.0 mph N1.6 kmh N 3.0 mph4.8 kmh 30.23 in1023.7 mb 0.00 in0.0 mm 0.00 in0.0 mm 0.00 in0.0 mm
10:30 PM 57.9°F14.4°C 43.0°F6.1°C 58% 0.8 mph NW1.3 kmh NW 2.0 mph3.2 kmh 30.23 in1023.7 mb 0.00 in0.0 mm 0.00 in0.0 mm 0.00 in0.0 mm
10:40 PM 57.7°F14.3°C 43.0°F6.1°C 58% 1.0 mph WNW1.6 kmh WNW 3.0 mph4.8 kmh 30.22 in1023.4 mb 0.00 in0.0 mm 0.00 in0.0 mm 0.00 in0.0 mm
10:50 PM 58.3°F14.6°C 42.0°F5.6°C 55% 1.2 mph NW1.9 kmh NW 3.0 mph4.8 kmh 30.22 in1023.4 mb 0.00 in0.0 mm 0.00 in0.0 mm 0.00 in0.0 mm
11:00 PM 58.0°F14.4°C 43.0°F6.1°C 57% 0.5 mph NW0.8 kmh NW 3.0 mph4.8 kmh 30.22 in1023.4 mb 0.00 in0.0 mm 0.00 in0.0 mm 0.00 in0.0 mm
11:10 PM 57.5°F14.2°C 42.0°F5.6°C 56% 0.7 mph N1.1 kmh N 6.0 mph9.7 kmh 30.22 in1023.4 mb 0.00 in0.0 mm 0.00 in0.0 mm 0.00 in0.0 mm
11:20 PM 56.3°F13.5°C 43.0°F6.1°C 61% 1.1 mph NW1.8 kmh NW 3.0 mph4.8 kmh 30.22 in1023.4 mb 0.00 in0.0 mm 0.00 in0.0 mm 0.00 in0.0 mm
11:30 PM 56.5°F13.6°C 43.0°F6.1°C 60% 1.5 mph NW2.4 kmh NW 7.0 mph11.3 kmh 30.21 in1023.0 mb 0.00 in0.0 mm 0.00 in0.0 mm 0.00 in0.0 mm
11:40 PM 56.9°F13.8°C 42.0°F5.6°C 58% 1.5 mph NNW2.4 kmh NNW 4.0 mph6.4 kmh 30.21 in1023.0 mb 0.00 in0.0 mm 0.00 in0.0 mm 0.00 in0.0 mm
11:50 PM 57.4°F14.1°C 42.0°F5.6°C 56% 1.7 mph NNW2.7 kmh NNW 5.0 mph8.0 kmh 30.21 in1023.0 mb 0.00 in0.0 mm 0.00 in0.0 mm 0.00 in0.0 mm